Terminal Aerodrome Forecast
Issued by NWS

Home | Current Version | Previous Version | Text Only | Print | Product List | Glossary On
Versions: 1 2 3 4 5 6 7 8 9 10 11 12 13 14 15 16 17 18 19
143
FTPA31 PHFO 302105 AAA
TAFHNY
TAF AMD
PHNY 302105Z 3021/3118 23006KT P6SM BKN025
     FM310100 05011KT P6SM SCT025 BKN035
     FM310600 07010KT P6SM FEW035=

USA.gov is the U.S. government's official web portal to all federal, state and local government web resources and services.